Ferda, Arkansas
Current Conditions -  °F | °C
As of 8:35 PM on Saturday 20 Dec 2014 (Local Time) from KSGT Reporting Station
NA  
Wind Chill: 33°   Ceiling: NA
Heat Index: 37°   Visibility: NA
Dew Point: 34°   Wind: 6mph
Humidity: 87%   Direction: 30°NNE
Pressure: 30.25"   Gusts: NA
Location:  34.5894°N, 91.9107°W
Report Text: KSGT 210235Z 03005KT 03/01 A3025 RMK AO1
Loading
Personal Weather Stations






























Interactive Weather Map New forecast layout! Learn more

10-Day Weather Forecast

Advertisements
Track Severe Weather on mobile